WWD weather

Cape May County Airport
Wildwood, New Jersey, United States

Public forecast

Using degrees Fahrenheit for public forecast. Weather courtesy of forecast.io.

METAR (pilot weather report)

Retrieved 2017/12/16 02:42 UTC (0 seconds ago):

KWWD 160242Z AUTO 29007KT 10SM SCT010 M02/M03 A2999 RMK AO2 FZRANO

TAF (pilot weather forecast)

Forecast is more than 6 hours old.

Closest forecast is Millville Municipal Airport, 22.9 nm (42.4 km) NNW. Retrieved 2017/12/15 18:00 UTC (8 hours ago):

TAF KMIV 151759Z 1518/1618 04006KT P6SM OVC060 FM151830 03005KT 5SM -SN OVC035 FM151930 VRB02KT 1 1/2SM -SN OVC025 TEMPO 1520/1523 1/2SM SN OVC010 FM152300 VRB03KT 5SM -SN OVC025 FM160000 32004KT P6SM BKN050 FM161600 25012KT P6SM BKN090